sensor_id;sensor_type;location;lat;lon;timestamp;temperature;humidity
38910;DHT22;24676;51.360;12.354;2022-12-07T00:02:25;2.60;99.90
38910;DHT22;24676;51.360;12.354;2022-12-07T00:05:09;2.60;99.90
38910;DHT22;24676;51.360;12.354;2022-12-07T00:07:54;2.50;99.90
38910;DHT22;24676;51.360;12.354;2022-12-07T00:10:38;2.50;99.90
38910;DHT22;24676;51.360;12.354;2022-12-07T00:13:22;2.50;99.90
38910;DHT22;24676;51.360;12.354;2022-12-07T00:16:10;2.40;99.90
38910;DHT22;24676;51.360;12.354;2022-12-07T00:18:55;2.40;99.90
38910;DHT22;24676;51.360;12.354;2022-12-07T00:21:39;2.30;99.90
38910;DHT22;24676;51.360;12.354;2022-12-07T00:24:23;2.30;99.90
38910;DHT22;24676;51.360;12.354;2022-12-07T00:27:07;2.30;99.90
38910;DHT22;24676;51.360;12.354;2022-12-07T00:29:51;2.30;99.90
38910;DHT22;24676;51.360;12.354;2022-12-07T00:32:35;2.20;99.90
38910;DHT22;24676;51.360;12.354;2022-12-07T00:35:19;2.20;99.90
38910;DHT22;24676;51.360;12.354;2022-12-07T00:38:04;2.10;99.90
38910;DHT22;24676;51.360;12.354;2022-12-07T00:40:59;2.10;99.90
38910;DHT22;24676;51.360;12.354;2022-12-07T00:43:45;2.00;99.90
38910;DHT22;24676;51.360;12.354;2022-12-07T00:46:30;1.90;99.90
38910;DHT22;24676;51.360;12.354;2022-12-07T00:49:14;1.80;99.90
38910;DHT22;24676;51.360;12.354;2022-12-07T00:51:58;1.60;99.90
38910;DHT22;24676;51.360;12.354;2022-12-07T00:54:42;1.50;99.90
38910;DHT22;24676;51.360;12.354;2022-12-07T00:57:27;1.40;99.90
38910;DHT22;24676;51.360;12.354;2022-12-07T01:00:11;1.30;99.90
38910;DHT22;24676;51.360;12.354;2022-12-07T01:02:56;1.20;99.90
38910;DHT22;24676;51.360;12.354;2022-12-07T01:05:40;1.20;99.90
38910;DHT22;24676;51.360;12.354;2022-12-07T01:08:32;1.10;99.90
38910;DHT22;24676;51.360;12.354;2022-12-07T01:11:20;1.10;99.90
38910;DHT22;24676;51.360;12.354;2022-12-07T01:14:04;1.10;99.90
38910;DHT22;24676;51.360;12.354;2022-12-07T01:16:48;1.00;99.90
38910;DHT22;24676;51.360;12.354;2022-12-07T01:19:33;1.00;99.90
38910;DHT22;24676;51.360;12.354;2022-12-07T01:22:17;1.00;99.90
38910;DHT22;24676;51.360;12.354;2022-12-07T01:25:01;0.90;99.90
38910;DHT22;24676;51.360;12.354;2022-12-07T01:27:46;0.90;99.90
38910;DHT22;24676;51.360;12.354;2022-12-07T01:30:30;0.90;99.90
38910;DHT22;24676;51.360;12.354;2022-12-07T01:33:14;0.90;99.90
38910;DHT22;24676;51.360;12.354;2022-12-07T01:36:03;0.90;99.90
38910;DHT22;24676;51.360;12.354;2022-12-07T01:38:49;0.80;99.90
38910;DHT22;24676;51.360;12.354;2022-12-07T01:41:38;0.80;99.90
38910;DHT22;24676;51.360;12.354;2022-12-07T01:44:29;0.70;99.90
38910;DHT22;24676;51.360;12.354;2022-12-07T01:47:15;0.70;99.90
38910;DHT22;24676;51.360;12.354;2022-12-07T01:49:59;0.70;99.90
38910;DHT22;24676;51.360;12.354;2022-12-07T01:52:45;0.70;99.90
38910;DHT22;24676;51.360;12.354;2022-12-07T01:55:32;0.60;99.90
38910;DHT22;24676;51.360;12.354;2022-12-07T01:58:18;0.60;99.90
38910;DHT22;24676;51.360;12.354;2022-12-07T02:01:03;0.60;99.90
38910;DHT22;24676;51.360;12.354;2022-12-07T02:03:48;0.50;99.90
38910;DHT22;24676;51.360;12.354;2022-12-07T02:06:33;0.50;99.90
38910;DHT22;24676;51.360;12.354;2022-12-07T02:09:19;0.50;99.90
38910;DHT22;24676;51.360;12.354;2022-12-07T02:12:03;0.50;99.90
38910;DHT22;24676;51.360;12.354;2022-12-07T02:14:47;0.50;99.90
38910;DHT22;24676;51.360;12.354;2022-12-07T02:17:36;0.50;99.90
38910;DHT22;24676;51.360;12.354;2022-12-07T02:20:33;0.50;99.90
38910;DHT22;24676;51.360;12.354;2022-12-07T02:31:46;0.40;99.90
38910;DHT22;24676;51.360;12.354;2022-12-07T02:34:46;0.50;99.90
38910;DHT22;24676;51.360;12.354;2022-12-07T02:40:21;0.50;99.90
38910;DHT22;24676;51.360;12.354;2022-12-07T02:43:08;0.50;99.90
38910;DHT22;24676;51.360;12.354;2022-12-07T02:45:54;0.50;99.90
38910;DHT22;24676;51.360;12.354;2022-12-07T02:48:39;0.50;99.90
38910;DHT22;24676;51.360;12.354;2022-12-07T02:51:24;0.50;99.90
38910;DHT22;24676;51.360;12.354;2022-12-07T02:54:13;0.50;99.90
38910;DHT22;24676;51.360;12.354;2022-12-07T03:11:29;0.60;99.90
38910;DHT22;24676;51.360;12.354;2022-12-07T03:14:16;0.50;99.90
38910;DHT22;24676;51.360;12.354;2022-12-07T03:17:06;0.50;99.90
38910;DHT22;24676;51.360;12.354;2022-12-07T03:19:52;0.50;99.90
38910;DHT22;24676;51.360;12.354;2022-12-07T03:22:38;0.40;99.90
38910;DHT22;24676;51.360;12.354;2022-12-07T03:25:24;0.40;99.90
38910;DHT22;24676;51.360;12.354;2022-12-07T03:28:08;0.50;99.90
38910;DHT22;24676;51.360;12.354;2022-12-07T03:31:03;0.50;99.90
38910;DHT22;24676;51.360;12.354;2022-12-07T03:36:49;0.60;99.90
38910;DHT22;24676;51.360;12.354;2022-12-07T03:42:18;0.60;99.90
38910;DHT22;24676;51.360;12.354;2022-12-07T03:45:03;0.60;99.90
38910;DHT22;24676;51.360;12.354;2022-12-07T03:47:50;0.70;99.90
38910;DHT22;24676;51.360;12.354;2022-12-07T03:50:43;0.70;99.90
38910;DHT22;24676;51.360;12.354;2022-12-07T03:53:50;0.70;99.90
38910;DHT22;24676;51.360;12.354;2022-12-07T03:56:36;0.80;99.90
38910;DHT22;24676;51.360;12.354;2022-12-07T03:59:20;0.90;99.90
38910;DHT22;24676;51.360;12.354;2022-12-07T04:02:05;1.00;99.90
38910;DHT22;24676;51.360;12.354;2022-12-07T04:04:50;1.00;99.90
38910;DHT22;24676;51.360;12.354;2022-12-07T04:07:34;1.10;99.90
38910;DHT22;24676;51.360;12.354;2022-12-07T04:10:18;1.10;99.90
38910;DHT22;24676;51.360;12.354;2022-12-07T04:13:03;1.20;99.90
38910;DHT22;24676;51.360;12.354;2022-12-07T04:15:47;1.20;99.90
38910;DHT22;24676;51.360;12.354;2022-12-07T04:18:31;1.30;99.90
38910;DHT22;24676;51.360;12.354;2022-12-07T04:21:15;1.40;99.90
38910;DHT22;24676;51.360;12.354;2022-12-07T04:23:59;1.40;99.90
38910;DHT22;24676;51.360;12.354;2022-12-07T04:26:44;1.40;99.90
38910;DHT22;24676;51.360;12.354;2022-12-07T04:29:28;1.50;99.90
38910;DHT22;24676;51.360;12.354;2022-12-07T04:32:12;1.50;99.90
38910;DHT22;24676;51.360;12.354;2022-12-07T04:34:56;1.50;99.90
38910;DHT22;24676;51.360;12.354;2022-12-07T04:37:40;1.60;99.90
38910;DHT22;24676;51.360;12.354;2022-12-07T04:40:25;1.60;99.90
38910;DHT22;24676;51.360;12.354;2022-12-07T04:43:09;1.70;99.90
38910;DHT22;24676;51.360;12.354;2022-12-07T04:45:53;1.70;99.90
38910;DHT22;24676;51.360;12.354;2022-12-07T04:48:37;1.70;99.90
38910;DHT22;24676;51.360;12.354;2022-12-07T04:51:26;1.70;99.90
38910;DHT22;24676;51.360;12.354;2022-12-07T04:54:11;1.70;99.90
38910;DHT22;24676;51.360;12.354;2022-12-07T04:56:55;1.70;99.90
38910;DHT22;24676;51.360;12.354;2022-12-07T04:59:39;1.70;99.90
38910;DHT22;24676;51.360;12.354;2022-12-07T05:02:23;1.70;99.90
38910;DHT22;24676;51.360;12.354;2022-12-07T05:05:08;1.80;99.90
38910;DHT22;24676;51.360;12.354;2022-12-07T05:07:52;1.80;99.90
38910;DHT22;24676;51.360;12.354;2022-12-07T05:10:36;1.80;99.90
38910;DHT22;24676;51.360;12.354;2022-12-07T05:13:20;1.80;99.90
38910;DHT22;24676;51.360;12.354;2022-12-07T05:16:04;1.90;99.90
38910;DHT22;24676;51.360;12.354;2022-12-07T05:18:48;1.90;99.90
38910;DHT22;24676;51.360;12.354;2022-12-07T05:21:33;1.90;99.90
38910;DHT22;24676;51.360;12.354;2022-12-07T05:24:17;2.00;99.90
38910;DHT22;24676;51.360;12.354;2022-12-07T05:27:01;2.00;99.90
38910;DHT22;24676;51.360;12.354;2022-12-07T05:29:45;2.00;99.90
38910;DHT22;24676;51.360;12.354;2022-12-07T05:32:29;2.00;99.90
38910;DHT22;24676;51.360;12.354;2022-12-07T05:35:14;2.00;99.90
38910;DHT22;24676;51.360;12.354;2022-12-07T05:37:58;2.00;99.90
38910;DHT22;24676;51.360;12.354;2022-12-07T05:40:42;2.10;99.90
38910;DHT22;24676;51.360;12.354;2022-12-07T05:43:26;2.10;99.90
38910;DHT22;24676;51.360;12.354;2022-12-07T05:46:10;2.10;99.90
38910;DHT22;24676;51.360;12.354;2022-12-07T05:48:54;2.10;99.90
38910;DHT22;24676;51.360;12.354;2022-12-07T05:51:39;2.10;99.90
38910;DHT22;24676;51.360;12.354;2022-12-07T05:54:23;2.10;99.90
38910;DHT22;24676;51.360;12.354;2022-12-07T05:57:08;2.10;99.90
38910;DHT22;24676;51.360;12.354;2022-12-07T05:59:52;2.10;99.90
38910;DHT22;24676;51.360;12.354;2022-12-07T06:02:36;2.10;99.90
38910;DHT22;24676;51.360;12.354;2022-12-07T06:05:20;2.10;99.90
38910;DHT22;24676;51.360;12.354;2022-12-07T06:08:04;2.20;99.90
38910;DHT22;24676;51.360;12.354;2022-12-07T06:10:49;2.30;99.90
38910;DHT22;24676;51.360;12.354;2022-12-07T06:13:53;2.40;99.90
38910;DHT22;24676;51.360;12.354;2022-12-07T06:16:37;2.50;99.90
38910;DHT22;24676;51.360;12.354;2022-12-07T06:19:22;2.50;99.90
38910;DHT22;24676;51.360;12.354;2022-12-07T06:22:06;2.50;99.90
38910;DHT22;24676;51.360;12.354;2022-12-07T06:24:51;2.40;99.90
38910;DHT22;24676;51.360;12.354;2022-12-07T06:27:35;2.40;99.90
38910;DHT22;24676;51.360;12.354;2022-12-07T06:30:19;2.50;99.90
38910;DHT22;24676;51.360;12.354;2022-12-07T06:33:03;2.50;99.90
38910;DHT22;24676;51.360;12.354;2022-12-07T06:35:48;2.50;99.90
38910;DHT22;24676;51.360;12.354;2022-12-07T06:38:32;2.50;99.90
38910;DHT22;24676;51.360;12.354;2022-12-07T06:41:17;2.40;99.90
38910;DHT22;24676;51.360;12.354;2022-12-07T06:44:02;2.40;99.90
38910;DHT22;24676;51.360;12.354;2022-12-07T06:46:46;2.30;99.90
38910;DHT22;24676;51.360;12.354;2022-12-07T06:49:31;2.20;99.90
38910;DHT22;24676;51.360;12.354;2022-12-07T06:52:15;2.30;99.90
38910;DHT22;24676;51.360;12.354;2022-12-07T06:54:59;2.40;99.90
38910;DHT22;24676;51.360;12.354;2022-12-07T06:57:43;2.40;99.90
38910;DHT22;24676;51.360;12.354;2022-12-07T07:00:28;2.50;99.90
38910;DHT22;24676;51.360;12.354;2022-12-07T07:03:13;2.60;99.90
38910;DHT22;24676;51.360;12.354;2022-12-07T07:05:57;2.60;99.90
38910;DHT22;24676;51.360;12.354;2022-12-07T07:08:41;2.70;99.90
38910;DHT22;24676;51.360;12.354;2022-12-07T07:11:25;2.80;99.90
38910;DHT22;24676;51.360;12.354;2022-12-07T07:14:09;2.80;99.90
38910;DHT22;24676;51.360;12.354;2022-12-07T07:16:54;2.80;99.90
38910;DHT22;24676;51.360;12.354;2022-12-07T07:19:38;2.90;99.90
38910;DHT22;24676;51.360;12.354;2022-12-07T07:22:23;2.90;99.90
38910;DHT22;24676;51.360;12.354;2022-12-07T07:25:07;2.90;99.90
38910;DHT22;24676;51.360;12.354;2022-12-07T07:27:51;2.90;99.90
38910;DHT22;24676;51.360;12.354;2022-12-07T07:30:36;3.20;99.90
38910;DHT22;24676;51.360;12.354;2022-12-07T07:33:20;3.30;99.90
38910;DHT22;24676;51.360;12.354;2022-12-07T07:36:05;3.40;99.90
38910;DHT22;24676;51.360;12.354;2022-12-07T07:38:49;3.60;99.90
38910;DHT22;24676;51.360;12.354;2022-12-07T07:41:34;3.70;99.90
38910;DHT22;24676;51.360;12.354;2022-12-07T07:44:18;3.80;99.90
38910;DHT22;24676;51.360;12.354;2022-12-07T07:47:02;3.90;99.90
38910;DHT22;24676;51.360;12.354;2022-12-07T07:49:47;3.90;99.90
38910;DHT22;24676;51.360;12.354;2022-12-07T07:52:31;3.90;99.90
38910;DHT22;24676;51.360;12.354;2022-12-07T07:55:15;4.00;99.90
38910;DHT22;24676;51.360;12.354;2022-12-07T07:57:59;4.00;99.90
38910;DHT22;24676;51.360;12.354;2022-12-07T08:00:43;3.90;99.90
38910;DHT22;24676;51.360;12.354;2022-12-07T08:03:27;3.80;99.90
38910;DHT22;24676;51.360;12.354;2022-12-07T08:06:12;3.90;99.90
38910;DHT22;24676;51.360;12.354;2022-12-07T08:08:56;3.80;99.90
38910;DHT22;24676;51.360;12.354;2022-12-07T08:11:42;3.70;99.90
38910;DHT22;24676;51.360;12.354;2022-12-07T08:14:26;3.60;99.90
38910;DHT22;24676;51.360;12.354;2022-12-07T08:17:11;3.50;99.90
38910;DHT22;24676;51.360;12.354;2022-12-07T08:19:56;3.40;99.90
38910;DHT22;24676;51.360;12.354;2022-12-07T08:22:40;3.40;99.90
38910;DHT22;24676;51.360;12.354;2022-12-07T08:25:24;3.30;99.90
38910;DHT22;24676;51.360;12.354;2022-12-07T08:28:09;3.20;99.90
38910;DHT22;24676;51.360;12.354;2022-12-07T08:30:59;3.20;99.90
38910;DHT22;24676;51.360;12.354;2022-12-07T08:33:46;3.20;99.90
38910;DHT22;24676;51.360;12.354;2022-12-07T08:36:30;3.20;99.90
38910;DHT22;24676;51.360;12.354;2022-12-07T08:39:14;3.40;99.90
38910;DHT22;24676;51.360;12.354;2022-12-07T08:41:58;3.50;99.90
38910;DHT22;24676;51.360;12.354;2022-12-07T08:44:42;3.70;99.90
38910;DHT22;24676;51.360;12.354;2022-12-07T08:47:26;3.90;99.90
38910;DHT22;24676;51.360;12.354;2022-12-07T08:50:12;4.00;99.90
38910;DHT22;24676;51.360;12.354;2022-12-07T08:52:58;4.10;99.90
38910;DHT22;24676;51.360;12.354;2022-12-07T08:55:46;4.10;99.90
38910;DHT22;24676;51.360;12.354;2022-12-07T08:58:31;4.10;99.90
38910;DHT22;24676;51.360;12.354;2022-12-07T09:01:15;4.00;99.90
38910;DHT22;24676;51.360;12.354;2022-12-07T09:04:00;4.00;99.90
38910;DHT22;24676;51.360;12.354;2022-12-07T09:06:44;3.90;99.90
38910;DHT22;24676;51.360;12.354;2022-12-07T09:09:28;3.80;99.90
38910;DHT22;24676;51.360;12.354;2022-12-07T09:12:12;3.90;99.90
38910;DHT22;24676;51.360;12.354;2022-12-07T09:14:57;4.00;99.90
38910;DHT22;24676;51.360;12.354;2022-12-07T09:17:41;4.10;99.90
38910;DHT22;24676;51.360;12.354;2022-12-07T09:20:25;4.30;99.90
38910;DHT22;24676;51.360;12.354;2022-12-07T09:23:09;4.30;99.90
38910;DHT22;24676;51.360;12.354;2022-12-07T09:25:53;4.30;99.90
38910;DHT22;24676;51.360;12.354;2022-12-07T09:28:37;4.30;99.90
38910;DHT22;24676;51.360;12.354;2022-12-07T09:31:21;4.30;99.90
38910;DHT22;24676;51.360;12.354;2022-12-07T09:34:06;4.30;99.90
38910;DHT22;24676;51.360;12.354;2022-12-07T09:36:51;4.20;99.90
38910;DHT22;24676;51.360;12.354;2022-12-07T09:39:38;4.20;99.90
38910;DHT22;24676;51.360;12.354;2022-12-07T09:42:37;4.10;99.90
38910;DHT22;24676;51.360;12.354;2022-12-07T09:45:27;4.00;99.90
38910;DHT22;24676;51.360;12.354;2022-12-07T09:48:28;4.00;99.90
38910;DHT22;24676;51.360;12.354;2022-12-07T09:51:18;4.00;99.90
38910;DHT22;24676;51.360;12.354;2022-12-07T09:54:03;3.90;99.90
38910;DHT22;24676;51.360;12.354;2022-12-07T09:56:47;3.90;99.90
38910;DHT22;24676;51.360;12.354;2022-12-07T09:59:31;3.90;99.90
38910;DHT22;24676;51.360;12.354;2022-12-07T10:05:14;3.90;99.90
38910;DHT22;24676;51.360;12.354;2022-12-07T10:07:59;4.00;99.90
38910;DHT22;24676;51.360;12.354;2022-12-07T10:10:45;4.10;99.90
38910;DHT22;24676;51.360;12.354;2022-12-07T10:13:42;4.20;99.90
38910;DHT22;24676;51.360;12.354;2022-12-07T10:16:38;4.20;99.90
38910;DHT22;24676;51.360;12.354;2022-12-07T10:19:29;4.20;99.90
38910;DHT22;24676;51.360;12.354;2022-12-07T10:22:16;4.30;99.90
38910;DHT22;24676;51.360;12.354;2022-12-07T10:25:08;4.40;99.90
38910;DHT22;24676;51.360;12.354;2022-12-07T10:31:15;4.70;99.90
38910;DHT22;24676;51.360;12.354;2022-12-07T10:34:01;4.80;99.90
38910;DHT22;24676;51.360;12.354;2022-12-07T10:36:46;4.80;99.90
38910;DHT22;24676;51.360;12.354;2022-12-07T10:39:53;4.80;99.90
38910;DHT22;24676;51.360;12.354;2022-12-07T10:42:38;4.80;99.90
38910;DHT22;24676;51.360;12.354;2022-12-07T10:45:22;4.90;99.90
38910;DHT22;24676;51.360;12.354;2022-12-07T10:49:08;4.90;99.90
38910;DHT22;24676;51.360;12.354;2022-12-07T10:51:47;4.90;99.90
38910;DHT22;24676;51.360;12.354;2022-12-07T11:01:18;4.90;99.90
38910;DHT22;24676;51.360;12.354;2022-12-07T11:07:34;4.90;99.90
38910;DHT22;24676;51.360;12.354;2022-12-07T11:13:29;4.90;99.90
38910;DHT22;24676;51.360;12.354;2022-12-07T11:28:26;4.30;99.90
38910;DHT22;24676;51.360;12.354;2022-12-07T11:37:34;4.10;99.90
38910;DHT22;24676;51.360;12.354;2022-12-07T11:43:26;4.10;99.90
38910;DHT22;24676;51.360;12.354;2022-12-07T11:46:13;4.10;99.90
38910;DHT22;24676;51.360;12.354;2022-12-07T11:49:03;4.20;99.90
38910;DHT22;24676;51.360;12.354;2022-12-07T11:51:54;4.40;99.90
38910;DHT22;24676;51.360;12.354;2022-12-07T11:54:43;4.50;99.90
38910;DHT22;24676;51.360;12.354;2022-12-07T11:57:36;4.70;99.90
38910;DHT22;24676;51.360;12.354;2022-12-07T12:00:21;4.70;99.90
38910;DHT22;24676;51.360;12.354;2022-12-07T12:03:12;4.70;99.90
38910;DHT22;24676;51.360;12.354;2022-12-07T12:05:58;4.70;99.90
38910;DHT22;24676;51.360;12.354;2022-12-07T12:08:56;4.80;99.90
38910;DHT22;24676;51.360;12.354;2022-12-07T12:15:16;4.90;99.90
38910;DHT22;24676;51.360;12.354;2022-12-07T12:21:14;4.90;99.90
38910;DHT22;24676;51.360;12.354;2022-12-07T12:24:03;4.90;99.90
38910;DHT22;24676;51.360;12.354;2022-12-07T12:26:57;4.90;99.90
38910;DHT22;24676;51.360;12.354;2022-12-07T12:29:44;4.90;99.90
38910;DHT22;24676;51.360;12.354;2022-12-07T12:35:36;5.10;99.90
38910;DHT22;24676;51.360;12.354;2022-12-07T12:38:33;5.20;99.90
38910;DHT22;24676;51.360;12.354;2022-12-07T12:44:38;5.20;99.90
38910;DHT22;24676;51.360;12.354;2022-12-07T12:47:53;5.30;99.90
38910;DHT22;24676;51.360;12.354;2022-12-07T12:50:38;5.30;99.90
38910;DHT22;24676;51.360;12.354;2022-12-07T12:53:26;5.30;99.90
38910;DHT22;24676;51.360;12.354;2022-12-07T13:08:16;5.20;99.90
38910;DHT22;24676;51.360;12.354;2022-12-07T13:11:29;5.20;99.90
38910;DHT22;24676;51.360;12.354;2022-12-07T13:26:41;5.30;99.90
38910;DHT22;24676;51.360;12.354;2022-12-07T13:29:26;5.20;99.90
38910;DHT22;24676;51.360;12.354;2022-12-07T13:32:23;5.30;99.90
38910;DHT22;24676;51.360;12.354;2022-12-07T13:35:32;5.30;99.90
38910;DHT22;24676;51.360;12.354;2022-12-07T13:38:29;5.30;99.90
38910;DHT22;24676;51.360;12.354;2022-12-07T13:41:17;5.30;99.90
38910;DHT22;24676;51.360;12.354;2022-12-07T13:44:10;5.30;99.90
38910;DHT22;24676;51.360;12.354;2022-12-07T13:49:51;5.20;99.90
38910;DHT22;24676;51.360;12.354;2022-12-07T13:52:43;5.20;99.90
38910;DHT22;24676;51.360;12.354;2022-12-07T13:55:29;5.20;99.90
38910;DHT22;24676;51.360;12.354;2022-12-07T13:58:14;5.20;99.90
38910;DHT22;24676;51.360;12.354;2022-12-07T14:00:58;5.20;99.90
38910;DHT22;24676;51.360;12.354;2022-12-07T14:03:43;5.20;99.90
38910;DHT22;24676;51.360;12.354;2022-12-07T14:06:27;5.20;99.90
38910;DHT22;24676;51.360;12.354;2022-12-07T14:09:24;5.10;99.90
38910;DHT22;24676;51.360;12.354;2022-12-07T14:12:08;5.10;99.90
38910;DHT22;24676;51.360;12.354;2022-12-07T14:14:53;5.00;99.90
38910;DHT22;24676;51.360;12.354;2022-12-07T14:17:50;4.90;99.90
38910;DHT22;24676;51.360;12.354;2022-12-07T14:20:40;4.80;99.90
38910;DHT22;24676;51.360;12.354;2022-12-07T14:23:25;4.70;99.90
38910;DHT22;24676;51.360;12.354;2022-12-07T14:26:15;4.80;99.90
38910;DHT22;24676;51.360;12.354;2022-12-07T14:29:22;4.70;99.90
38910;DHT22;24676;51.360;12.354;2022-12-07T14:32:19;4.60;99.90
38910;DHT22;24676;51.360;12.354;2022-12-07T14:35:12;4.50;99.90
38910;DHT22;24676;51.360;12.354;2022-12-07T14:37:57;4.50;99.90
38910;DHT22;24676;51.360;12.354;2022-12-07T14:40:41;4.40;99.90
38910;DHT22;24676;51.360;12.354;2022-12-07T14:43:26;4.40;99.90
38910;DHT22;24676;51.360;12.354;2022-12-07T14:46:10;4.30;99.90
38910;DHT22;24676;51.360;12.354;2022-12-07T14:48:54;4.20;99.90
38910;DHT22;24676;51.360;12.354;2022-12-07T14:51:39;4.20;99.90
38910;DHT22;24676;51.360;12.354;2022-12-07T14:54:28;4.10;99.90
38910;DHT22;24676;51.360;12.354;2022-12-07T14:57:13;4.10;99.90
38910;DHT22;24676;51.360;12.354;2022-12-07T14:59:57;4.00;99.90
38910;DHT22;24676;51.360;12.354;2022-12-07T15:02:41;4.00;99.90
38910;DHT22;24676;51.360;12.354;2022-12-07T15:05:25;3.90;99.90
38910;DHT22;24676;51.360;12.354;2022-12-07T15:08:12;3.90;99.90
38910;DHT22;24676;51.360;12.354;2022-12-07T15:10:56;3.80;99.90
38910;DHT22;24676;51.360;12.354;2022-12-07T15:13:41;3.80;99.90
38910;DHT22;24676;51.360;12.354;2022-12-07T15:16:43;3.80;99.90
38910;DHT22;24676;51.360;12.354;2022-12-07T15:19:28;3.80;99.90
38910;DHT22;24676;51.360;12.354;2022-12-07T15:22:12;3.80;99.90
38910;DHT22;24676;51.360;12.354;2022-12-07T15:24:57;3.70;99.90
38910;DHT22;24676;51.360;12.354;2022-12-07T15:27:41;3.70;99.90
38910;DHT22;24676;51.360;12.354;2022-12-07T15:30:25;3.70;99.90
38910;DHT22;24676;51.360;12.354;2022-12-07T15:33:10;3.60;99.90
38910;DHT22;24676;51.360;12.354;2022-12-07T15:35:55;3.70;99.90
38910;DHT22;24676;51.360;12.354;2022-12-07T15:38:39;3.60;99.90
38910;DHT22;24676;51.360;12.354;2022-12-07T15:41:23;3.60;99.90
38910;DHT22;24676;51.360;12.354;2022-12-07T15:44:13;3.60;99.90
38910;DHT22;24676;51.360;12.354;2022-12-07T15:47:16;3.70;99.90
38910;DHT22;24676;51.360;12.354;2022-12-07T15:50:00;3.60;99.90
38910;DHT22;24676;51.360;12.354;2022-12-07T15:52:44;3.70;99.90
38910;DHT22;24676;51.360;12.354;2022-12-07T15:55:28;3.70;99.90
38910;DHT22;24676;51.360;12.354;2022-12-07T15:58:13;3.70;99.90
38910;DHT22;24676;51.360;12.354;2022-12-07T16:00:57;3.80;99.90
38910;DHT22;24676;51.360;12.354;2022-12-07T16:03:42;3.80;99.90
38910;DHT22;24676;51.360;12.354;2022-12-07T16:06:26;3.90;99.90
38910;DHT22;24676;51.360;12.354;2022-12-07T16:09:10;3.90;99.90
38910;DHT22;24676;51.360;12.354;2022-12-07T16:11:55;3.90;99.90
38910;DHT22;24676;51.360;12.354;2022-12-07T16:14:40;3.90;99.90
38910;DHT22;24676;51.360;12.354;2022-12-07T16:17:24;3.80;99.90
38910;DHT22;24676;51.360;12.354;2022-12-07T16:20:09;3.70;99.90
38910;DHT22;24676;51.360;12.354;2022-12-07T16:22:53;3.50;99.90
38910;DHT22;24676;51.360;12.354;2022-12-07T16:25:38;3.40;99.90
38910;DHT22;24676;51.360;12.354;2022-12-07T16:28:22;3.30;99.90
38910;DHT22;24676;51.360;12.354;2022-12-07T16:31:14;3.20;99.90
38910;DHT22;24676;51.360;12.354;2022-12-07T16:33:59;3.20;99.90
38910;DHT22;24676;51.360;12.354;2022-12-07T16:36:44;3.10;99.90
38910;DHT22;24676;51.360;12.354;2022-12-07T16:39:28;3.00;99.90
38910;DHT22;24676;51.360;12.354;2022-12-07T16:42:22;3.00;99.90
38910;DHT22;24676;51.360;12.354;2022-12-07T16:45:07;2.90;99.90
38910;DHT22;24676;51.360;12.354;2022-12-07T16:47:51;2.80;99.90
38910;DHT22;24676;51.360;12.354;2022-12-07T16:50:39;2.80;99.90
38910;DHT22;24676;51.360;12.354;2022-12-07T16:53:24;2.80;99.90
38910;DHT22;24676;51.360;12.354;2022-12-07T16:56:13;2.80;99.90
38910;DHT22;24676;51.360;12.354;2022-12-07T16:58:59;2.80;99.90
38910;DHT22;24676;51.360;12.354;2022-12-07T17:01:43;2.80;99.90
38910;DHT22;24676;51.360;12.354;2022-12-07T17:04:27;2.80;99.90
38910;DHT22;24676;51.360;12.354;2022-12-07T17:07:12;2.80;99.90
38910;DHT22;24676;51.360;12.354;2022-12-07T17:09:56;2.80;99.90
38910;DHT22;24676;51.360;12.354;2022-12-07T17:12:40;2.90;99.90
38910;DHT22;24676;51.360;12.354;2022-12-07T17:15:25;2.90;99.90
38910;DHT22;24676;51.360;12.354;2022-12-07T17:18:09;2.90;99.90
38910;DHT22;24676;51.360;12.354;2022-12-07T17:20:54;2.90;99.90
38910;DHT22;24676;51.360;12.354;2022-12-07T17:23:38;2.90;99.90
38910;DHT22;24676;51.360;12.354;2022-12-07T17:26:25;2.90;99.90
38910;DHT22;24676;51.360;12.354;2022-12-07T17:29:12;2.90;99.90
38910;DHT22;24676;51.360;12.354;2022-12-07T17:31:57;2.90;99.90
38910;DHT22;24676;51.360;12.354;2022-12-07T17:34:42;2.90;99.90
38910;DHT22;24676;51.360;12.354;2022-12-07T17:37:26;2.80;99.90
38910;DHT22;24676;51.360;12.354;2022-12-07T17:40:11;2.80;99.90
38910;DHT22;24676;51.360;12.354;2022-12-07T17:42:56;2.80;99.90
38910;DHT22;24676;51.360;12.354;2022-12-07T17:45:40;2.80;99.90
38910;DHT22;24676;51.360;12.354;2022-12-07T17:48:24;2.80;99.90
38910;DHT22;24676;51.360;12.354;2022-12-07T17:51:08;2.80;99.90
38910;DHT22;24676;51.360;12.354;2022-12-07T17:54:12;2.90;99.90
38910;DHT22;24676;51.360;12.354;2022-12-07T17:56:56;2.90;99.90
38910;DHT22;24676;51.360;12.354;2022-12-07T17:59:40;2.90;99.90
38910;DHT22;24676;51.360;12.354;2022-12-07T18:02:25;3.00;99.90
38910;DHT22;24676;51.360;12.354;2022-12-07T18:05:09;3.00;99.90
38910;DHT22;24676;51.360;12.354;2022-12-07T18:07:54;3.00;99.90
38910;DHT22;24676;51.360;12.354;2022-12-07T18:10:38;3.00;99.90
38910;DHT22;24676;51.360;12.354;2022-12-07T18:13:22;3.00;99.90
38910;DHT22;24676;51.360;12.354;2022-12-07T18:16:21;2.90;99.90
38910;DHT22;24676;51.360;12.354;2022-12-07T18:19:07;2.90;99.90
38910;DHT22;24676;51.360;12.354;2022-12-07T18:21:52;2.90;99.90
38910;DHT22;24676;51.360;12.354;2022-12-07T18:24:36;2.90;99.90
38910;DHT22;24676;51.360;12.354;2022-12-07T18:27:23;2.90;99.90
38910;DHT22;24676;51.360;12.354;2022-12-07T18:30:08;2.90;99.90
38910;DHT22;24676;51.360;12.354;2022-12-07T18:32:52;2.90;99.90
38910;DHT22;24676;51.360;12.354;2022-12-07T18:35:36;2.80;99.90
38910;DHT22;24676;51.360;12.354;2022-12-07T18:38:20;2.80;99.90
38910;DHT22;24676;51.360;12.354;2022-12-07T18:41:10;2.80;99.90
38910;DHT22;24676;51.360;12.354;2022-12-07T18:43:55;2.80;99.90
38910;DHT22;24676;51.360;12.354;2022-12-07T18:46:40;2.80;99.90
38910;DHT22;24676;51.360;12.354;2022-12-07T18:49:25;2.80;99.90
38910;DHT22;24676;51.360;12.354;2022-12-07T18:52:09;2.70;99.90
38910;DHT22;24676;51.360;12.354;2022-12-07T18:54:53;2.70;99.90
38910;DHT22;24676;51.360;12.354;2022-12-07T18:57:38;2.70;99.90
38910;DHT22;24676;51.360;12.354;2022-12-07T19:00:23;2.70;99.90
38910;DHT22;24676;51.360;12.354;2022-12-07T19:03:08;2.80;99.90
38910;DHT22;24676;51.360;12.354;2022-12-07T19:05:52;2.80;99.90
38910;DHT22;24676;51.360;12.354;2022-12-07T19:08:40;2.80;99.90
38910;DHT22;24676;51.360;12.354;2022-12-07T19:11:30;2.80;99.90
38910;DHT22;24676;51.360;12.354;2022-12-07T19:14:36;2.80;99.90
38910;DHT22;24676;51.360;12.354;2022-12-07T19:17:20;2.80;99.90
38910;DHT22;24676;51.360;12.354;2022-12-07T19:20:06;2.80;99.90
38910;DHT22;24676;51.360;12.354;2022-12-07T19:22:51;2.80;99.90
38910;DHT22;24676;51.360;12.354;2022-12-07T19:25:35;2.70;99.90